createdAt,value
2023-02-19T00:02:11.904Z,6.34
2023-02-19T00:04:42.974Z,6.28
2023-02-19T00:07:09.749Z,6.22
2023-02-19T00:09:43.197Z,6.18
2023-02-19T00:12:12.471Z,6.15
2023-02-19T00:14:39.292Z,6.11
2023-02-19T00:17:06.166Z,6.08
2023-02-19T00:19:33.195Z,6.05
2023-02-19T00:22:00.191Z,6.02
2023-02-19T00:24:27.196Z,5.99
2023-02-19T00:26:54.017Z,5.96
2023-02-19T00:29:21.477Z,5.93
2023-02-19T00:31:48.393Z,5.90
2023-02-19T00:34:15.512Z,5.89
2023-02-19T00:36:43.539Z,5.88
2023-02-19T00:39:13.482Z,5.88
2023-02-19T00:41:41.368Z,5.86
2023-02-19T00:44:10.735Z,5.84
2023-02-19T00:46:46.859Z,5.80
2023-02-19T00:49:19.614Z,5.79
2023-02-19T00:51:49.650Z,5.76
2023-02-19T00:54:24.095Z,5.70
2023-02-19T00:56:51.487Z,5.64
2023-02-19T00:59:20.800Z,5.59
2023-02-19T01:01:49.103Z,5.56
2023-02-19T01:04:17.445Z,5.55
2023-02-19T01:06:44.306Z,5.54
2023-02-19T01:09:13.194Z,5.54
2023-02-19T01:11:41.339Z,5.54
2023-02-19T01:14:09.203Z,5.55
2023-02-19T01:16:35.959Z,5.54
2023-02-19T01:19:05.823Z,5.53
2023-02-19T01:21:32.711Z,5.52
2023-02-19T01:23:59.918Z,5.50
2023-02-19T01:26:30.552Z,5.46
2023-02-19T01:28:59.388Z,5.45
2023-02-19T01:31:27.695Z,5.43
2023-02-19T01:34:00.649Z,5.40
2023-02-19T01:36:31.172Z,5.36
2023-02-19T01:39:03.253Z,5.35
2023-02-19T01:41:31.226Z,5.33
2023-02-19T01:44:03.513Z,5.32
2023-02-19T01:46:35.923Z,5.29
2023-02-19T01:49:13.340Z,5.27
2023-02-19T01:51:48.726Z,5.24
2023-02-19T01:54:19.105Z,5.20
2023-02-19T01:56:48.310Z,5.18
2023-02-19T01:59:18.610Z,5.16
2023-02-19T02:01:54.706Z,5.14
2023-02-19T02:04:24.319Z,5.14
2023-02-19T02:06:56.855Z,5.16
2023-02-19T02:09:45.755Z,5.18
2023-02-19T02:12:12.751Z,5.20
2023-02-19T02:14:47.564Z,5.23
2023-02-19T02:17:14.467Z,5.25
2023-02-19T02:20:14.490Z,5.29
2023-02-19T02:23:00.187Z,5.29
2023-02-19T02:25:57.508Z,5.29
2023-02-19T02:29:24.629Z,5.29
2023-02-19T02:32:06.943Z,5.28
2023-02-19T02:34:41.338Z,5.28
2023-02-19T02:37:09.716Z,5.29
2023-02-19T02:39:41.816Z,5.29
2023-02-19T02:42:27.473Z,5.29
2023-02-19T02:45:36.045Z,5.29
2023-02-19T02:48:29.901Z,5.29
2023-02-19T02:51:10.465Z,5.31
2023-02-19T02:54:10.371Z,5.33
2023-02-19T02:56:41.088Z,5.37
2023-02-19T02:59:10.466Z,5.41
2023-02-19T03:02:04.584Z,5.44
2023-02-19T03:05:05.401Z,5.45
2023-02-19T03:07:41.661Z,5.50
2023-02-19T03:10:15.643Z,5.54
2023-02-19T03:13:03.644Z,5.55
2023-02-19T03:15:55.327Z,5.57
2023-02-19T03:18:43.582Z,5.57
2023-02-19T03:21:11.902Z,5.59
2023-02-19T03:23:59.486Z,5.63
2023-02-19T03:26:27.764Z,5.64
2023-02-19T03:29:15.941Z,5.66
2023-02-19T03:31:47.561Z,5.67
2023-02-19T03:34:26.201Z,5.66
2023-02-19T03:37:11.418Z,5.64
2023-02-19T03:39:43.854Z,5.65
2023-02-19T03:42:32.281Z,5.67
2023-02-19T03:44:59.648Z,5.70
2023-02-19T03:47:52.561Z,5.75
2023-02-19T03:50:27.422Z,5.77
2023-02-19T03:53:35.112Z,5.78
2023-02-19T03:56:15.765Z,5.78
2023-02-19T03:59:02.771Z,5.73
2023-02-19T04:01:43.819Z,5.68
2023-02-19T04:04:27.205Z,5.62
2023-02-19T04:07:06.090Z,5.57
2023-02-19T04:09:43.822Z,5.51
2023-02-19T04:12:18.287Z,5.44
2023-02-19T04:14:54.363Z,5.39
2023-02-19T04:17:26.951Z,5.33
2023-02-19T04:19:57.287Z,5.28
2023-02-19T04:22:24.959Z,5.21
2023-02-19T04:24:55.856Z,5.14
2023-02-19T04:27:23.018Z,5.07
2023-02-19T04:29:49.781Z,5.01
2023-02-19T04:32:16.831Z,4.96
2023-02-19T04:34:44.096Z,4.94
2023-02-19T04:37:18.844Z,4.93
2023-02-19T04:39:54.517Z,4.94
2023-02-19T04:42:30.821Z,4.94
2023-02-19T04:45:00.165Z,4.95
2023-02-19T04:47:28.497Z,4.94
2023-02-19T04:50:00.113Z,4.91
2023-02-19T04:52:36.635Z,4.89
2023-02-19T04:55:03.658Z,4.85
2023-02-19T04:57:31.766Z,4.81
2023-02-19T04:59:58.692Z,4.76
2023-02-19T05:02:25.639Z,4.72
2023-02-19T05:04:53.832Z,4.69
2023-02-19T05:07:20.782Z,4.66
2023-02-19T05:09:51.996Z,4.63
2023-02-19T05:12:20.237Z,4.61
2023-02-19T05:14:47.055Z,4.58
2023-02-19T05:17:14.105Z,4.57
2023-02-19T05:19:43.536Z,4.56
2023-02-19T05:22:10.492Z,4.56
2023-02-19T05:24:37.419Z,4.57
2023-02-19T05:27:04.193Z,4.61
2023-02-19T05:29:31.738Z,4.66
2023-02-19T05:31:58.811Z,4.72
2023-02-19T05:34:25.738Z,4.77
2023-02-19T05:36:52.504Z,4.81
2023-02-19T05:39:19.245Z,4.84
2023-02-19T05:41:46.072Z,4.88
2023-02-19T05:44:12.882Z,4.92
2023-02-19T05:46:39.715Z,4.96
2023-02-19T05:49:06.666Z,5.01
2023-02-19T05:51:33.594Z,5.04
2023-02-19T05:54:00.429Z,5.08
2023-02-19T05:56:38.410Z,5.11
2023-02-19T05:59:19.210Z,5.15
2023-02-19T06:01:47.463Z,5.19
2023-02-19T06:04:15.194Z,5.22
2023-02-19T06:06:42.734Z,5.25
2023-02-19T06:09:12.967Z,5.28
2023-02-19T06:11:40.229Z,5.31
2023-02-19T06:14:07.098Z,5.34
2023-02-19T06:16:39.515Z,5.36
2023-02-19T06:19:06.382Z,5.37
2023-02-19T06:21:33.446Z,5.38
2023-02-19T06:24:05.515Z,5.40
2023-02-19T06:26:36.267Z,5.42
2023-02-19T06:29:08.066Z,5.44
2023-02-19T06:31:34.966Z,5.46
2023-02-19T06:34:05.537Z,5.49
2023-02-19T06:36:39.103Z,5.53
2023-02-19T06:39:06.675Z,5.56
2023-02-19T06:41:33.566Z,5.59
2023-02-19T06:44:01.796Z,5.63
2023-02-19T06:46:30.248Z,5.69
2023-02-19T06:48:59.124Z,5.76
2023-02-19T06:51:29.169Z,5.83
2023-02-19T06:53:58.309Z,5.89
2023-02-19T06:56:32.073Z,5.94
2023-02-19T06:59:03.886Z,5.99
2023-02-19T07:01:41.240Z,6.03
2023-02-19T07:04:31.653Z,6.05
2023-02-19T07:07:04.755Z,6.06
2023-02-19T07:09:37.203Z,6.04
2023-02-19T07:12:09.598Z,6.03
2023-02-19T07:14:36.474Z,6.02
2023-02-19T07:17:03.204Z,6.02
2023-02-19T07:19:32.174Z,6.03
2023-02-19T07:22:02.312Z,6.05
2023-02-19T07:24:30.524Z,6.06
2023-02-19T07:26:57.393Z,6.07
2023-02-19T07:29:25.634Z,6.08
2023-02-19T07:31:57.606Z,6.09
2023-02-19T07:34:27.259Z,6.11
2023-02-19T07:36:55.288Z,6.14
2023-02-19T07:39:22.123Z,6.18
2023-02-19T07:41:48.812Z,6.23
2023-02-19T07:44:33.880Z,6.28
2023-02-19T07:47:00.703Z,6.32
2023-02-19T07:49:32.673Z,6.35
2023-02-19T07:52:07.100Z,6.38
2023-02-19T07:54:33.892Z,6.40
2023-02-19T07:57:01.214Z,6.44
2023-02-19T07:59:30.374Z,6.46
2023-02-19T08:02:17.863Z,6.47
2023-02-19T08:05:04.942Z,6.50
2023-02-19T08:07:38.464Z,6.55
2023-02-19T08:10:24.329Z,6.59
2023-02-19T08:13:23.647Z,6.61
2023-02-19T08:16:24.090Z,6.63
2023-02-19T08:18:57.464Z,6.64
2023-02-19T08:21:24.183Z,6.67
2023-02-19T08:23:55.640Z,6.71
2023-02-19T08:26:23.695Z,6.75
2023-02-19T08:28:50.484Z,6.78
2023-02-19T08:31:17.289Z,6.83
2023-02-19T08:33:45.316Z,6.89
2023-02-19T08:36:17.117Z,6.94
2023-02-19T08:38:47.755Z,6.99
2023-02-19T08:41:17.266Z,7.03
2023-02-19T08:43:46.503Z,7.08
2023-02-19T08:46:13.592Z,7.12
2023-02-19T08:48:44.478Z,7.18
2023-02-19T08:51:19.085Z,7.24
2023-02-19T08:53:47.670Z,7.29
2023-02-19T08:56:16.848Z,7.32
2023-02-19T08:58:48.309Z,7.34
2023-02-19T09:01:23.308Z,7.36
2023-02-19T09:03:49.998Z,7.38
2023-02-19T09:06:20.628Z,7.41
2023-02-19T09:08:51.637Z,7.43
2023-02-19T09:11:23.861Z,7.44
2023-02-19T09:13:59.725Z,7.46
2023-02-19T09:16:28.824Z,7.48
2023-02-19T09:21:45.846Z,7.57
2023-02-19T09:24:20.813Z,7.65
2023-02-19T09:26:58.568Z,7.69
2023-02-19T09:29:42.441Z,7.71
2023-02-19T09:32:14.349Z,7.74
2023-02-19T09:34:54.992Z,7.79
2023-02-19T09:37:34.073Z,7.86
2023-02-19T09:40:01.105Z,7.94
2023-02-19T09:42:41.979Z,7.99
2023-02-19T09:45:19.571Z,8.05
2023-02-19T09:47:47.332Z,8.10
2023-02-19T09:50:19.142Z,8.18
2023-02-19T09:52:54.010Z,8.26
2023-02-19T09:55:44.409Z,8.34
2023-02-19T09:58:29.406Z,8.41
2023-02-19T10:01:10.553Z,8.43
2023-02-19T10:03:40.901Z,8.42
2023-02-19T10:06:23.427Z,8.46
2023-02-19T10:08:57.308Z,8.50
2023-02-19T10:11:26.738Z,8.54
2023-02-19T10:14:16.413Z,8.59
2023-02-19T10:16:49.856Z,8.65
2023-02-19T10:19:20.110Z,8.69
2023-02-19T10:21:47.054Z,8.71
2023-02-19T10:24:23.822Z,8.72
2023-02-19T10:26:51.116Z,8.74
2023-02-19T10:29:21.415Z,8.79
2023-02-19T10:31:48.396Z,8.84
2023-02-19T10:34:23.076Z,8.88
2023-02-19T10:36:56.096Z,8.94
2023-02-19T10:39:46.580Z,8.99
2023-02-19T10:42:26.299Z,9.05
2023-02-19T10:44:58.310Z,9.10
2023-02-19T10:47:26.771Z,9.13
2023-02-19T10:50:02.047Z,9.14
2023-02-19T10:52:41.861Z,9.17
2023-02-19T10:55:25.729Z,9.20
2023-02-19T10:57:55.074Z,9.23
2023-02-19T11:00:36.882Z,9.25
2023-02-19T11:03:34.170Z,9.26
2023-02-19T11:06:15.250Z,9.25
2023-02-19T11:08:54.253Z,9.25
2023-02-19T11:11:36.770Z,9.23
2023-02-19T11:14:23.020Z,9.22
2023-02-19T11:16:57.105Z,9.22
2023-02-19T11:19:44.851Z,9.25
2023-02-19T11:22:41.679Z,9.30
2023-02-19T11:25:17.177Z,9.34
2023-02-19T11:28:18.218Z,9.36
2023-02-19T11:30:48.830Z,9.36
2023-02-19T11:33:33.513Z,9.35
2023-02-19T11:39:47.526Z,9.36
2023-02-19T11:42:35.310Z,9.41
2023-02-19T11:45:21.428Z,9.48
2023-02-19T11:48:34.776Z,9.52
2023-02-19T11:52:05.160Z,9.55
2023-02-19T11:54:39.874Z,9.59
2023-02-19T11:57:14.119Z,9.61
2023-02-19T12:00:27.042Z,9.63
2023-02-19T12:03:33.517Z,9.65
2023-02-19T12:06:18.646Z,9.67
2023-02-19T12:08:45.525Z,9.69
2023-02-19T12:11:27.479Z,9.68
2023-02-19T12:14:32.647Z,9.67
2023-02-19T12:17:31.789Z,9.69
2023-02-19T12:20:21.900Z,9.72
2023-02-19T12:23:04.983Z,9.73
2023-02-19T12:26:14.168Z,9.78
2023-02-19T12:29:21.956Z,9.83
2023-02-19T12:32:26.584Z,9.95
2023-02-19T12:35:05.364Z,10.07
2023-02-19T12:37:49.502Z,10.16
2023-02-19T12:40:33.775Z,10.21
2023-02-19T12:43:20.949Z,10.24
2023-02-19T12:46:15.391Z,10.28
2023-02-19T12:48:59.894Z,10.35
2023-02-19T12:51:43.845Z,10.49
2023-02-19T12:54:30.156Z,10.66
2023-02-19T12:57:23.923Z,10.83
2023-02-19T13:00:09.240Z,10.92
2023-02-19T13:02:51.436Z,10.98
2023-02-19T13:06:00.566Z,11.06
2023-02-19T13:09:07.374Z,11.14
2023-02-19T13:11:43.077Z,11.28
2023-02-19T13:14:41.248Z,11.35
2023-02-19T13:17:26.329Z,11.35
2023-02-19T13:20:02.014Z,11.38
2023-02-19T13:22:52.884Z,11.44
2023-02-19T13:25:21.321Z,11.49
2023-02-19T13:28:32.728Z,11.55
2023-02-19T13:31:12.107Z,11.69
2023-02-19T13:34:02.252Z,11.83
2023-02-19T13:36:38.640Z,11.91
2023-02-19T13:39:07.441Z,11.90
2023-02-19T13:41:48.528Z,11.83
2023-02-19T13:44:23.718Z,11.73
2023-02-19T13:46:51.089Z,11.57
2023-02-19T13:49:31.025Z,11.43
2023-02-19T13:52:01.659Z,11.29
2023-02-19T13:54:39.563Z,11.20
2023-02-19T13:57:17.772Z,11.14
2023-02-19T13:59:47.765Z,11.21
2023-02-19T14:02:20.759Z,11.38
2023-02-19T14:05:01.635Z,11.53
2023-02-19T14:07:36.735Z,11.60
2023-02-19T14:10:14.285Z,11.61
2023-02-19T14:12:53.245Z,11.57
2023-02-19T14:15:42.250Z,11.51
2023-02-19T14:18:42.243Z,11.43
2023-02-19T14:21:37.790Z,11.38
2023-02-19T14:24:10.595Z,11.36
2023-02-19T14:26:39.047Z,11.33
2023-02-19T14:29:17.050Z,11.31
2023-02-19T14:31:47.603Z,11.29
2023-02-19T14:34:26.572Z,11.27
2023-02-19T14:37:01.971Z,11.22
2023-02-19T14:39:32.972Z,11.17
2023-02-19T14:42:04.375Z,11.14
2023-02-19T14:45:04.888Z,11.12
2023-02-19T14:47:43.216Z,11.09
2023-02-19T14:50:21.072Z,11.06
2023-02-19T14:53:14.772Z,11.05
2023-02-19T14:55:59.331Z,11.02
2023-02-19T14:58:38.609Z,10.99
2023-02-19T15:01:30.289Z,10.95
2023-02-19T15:04:01.804Z,10.89
2023-02-19T15:06:31.689Z,10.84
2023-02-19T15:09:10.727Z,10.80
2023-02-19T15:11:51.960Z,10.73
2023-02-19T15:14:23.221Z,10.67
2023-02-19T15:17:02.537Z,10.62
2023-02-19T15:19:34.498Z,10.55
2023-02-19T15:22:06.661Z,10.51
2023-02-19T15:24:36.923Z,10.47
2023-02-19T15:27:29.165Z,10.42
2023-02-19T15:29:56.103Z,10.36
2023-02-19T15:33:09.189Z,10.17
2023-02-19T15:40:15.936Z,9.66
2023-02-19T15:42:53.061Z,9.39
2023-02-19T15:45:54.120Z,9.18
2023-02-19T15:48:42.541Z,8.98
2023-02-19T15:51:18.598Z,8.83
2023-02-19T15:53:52.892Z,8.70
2023-02-19T15:56:48.924Z,8.64
2023-02-19T15:59:48.364Z,8.59
2023-02-19T16:02:52.919Z,8.58
2023-02-19T16:05:29.691Z,8.54
2023-02-19T16:08:31.057Z,8.53
2023-02-19T16:11:04.876Z,8.52
2023-02-19T16:13:34.499Z,8.54
2023-02-19T16:16:15.335Z,8.57
2023-02-19T16:18:47.167Z,8.62
2023-02-19T16:21:28.080Z,8.67
2023-02-19T16:25:04.598Z,8.74
2023-02-19T16:27:07.381Z,8.84
2023-02-19T16:30:22.829Z,8.90
2023-02-19T16:33:29.835Z,8.99
2023-02-19T16:36:20.267Z,9.06
2023-02-19T16:39:07.938Z,9.12
2023-02-19T16:43:31.087Z,9.20
2023-02-19T16:45:58.930Z,9.22
2023-02-19T16:48:29.307Z,9.26
2023-02-19T16:52:11.661Z,9.35
2023-02-19T16:54:54.553Z,9.38
2023-02-19T16:57:39.892Z,9.38
2023-02-19T17:01:50.475Z,9.32
2023-02-19T17:04:19.867Z,9.27
2023-02-19T17:06:47.759Z,9.20
2023-02-19T17:09:27.506Z,9.18
2023-02-19T17:12:15.219Z,9.18
2023-02-19T17:14:45.564Z,9.16
2023-02-19T17:18:39.431Z,9.15
2023-02-19T17:31:04.778Z,9.10
2023-02-19T17:37:39.559Z,8.97
2023-02-19T17:45:11.640Z,8.89
2023-02-19T17:53:02.208Z,8.84
2023-02-19T17:57:28.544Z,8.82
2023-02-19T18:01:09.084Z,8.81
2023-02-19T18:03:57.396Z,8.81
2023-02-19T18:22:43.098Z,8.83
2023-02-19T18:25:19.850Z,8.79
2023-02-19T18:32:45.152Z,8.71
2023-02-19T18:36:57.151Z,8.68
2023-02-19T18:44:47.442Z,8.55
2023-02-19T18:51:31.836Z,8.46
2023-02-19T19:16:39.699Z,8.25
2023-02-19T19:32:18.995Z,8.28
2023-02-19T19:35:00.386Z,8.26
2023-02-19T19:37:44.166Z,8.25
2023-02-19T19:40:19.923Z,8.25
2023-02-19T19:43:13.897Z,8.24
2023-02-19T19:56:46.755Z,8.24
2023-02-19T20:05:02.717Z,8.21
2023-02-19T20:11:54.497Z,8.13
2023-02-19T20:12:18.210Z,8.26
2023-02-19T20:14:52.340Z,8.10
2023-02-19T20:17:28.763Z,8.06
2023-02-19T20:19:56.792Z,7.95
2023-02-19T20:24:12.840Z,7.77
2023-02-19T20:25:59.130Z,7.51
2023-02-19T20:31:50.706Z,7.06
2023-02-19T20:34:45.709Z,6.85
2023-02-19T20:44:02.746Z,6.16
2023-02-19T20:48:08.289Z,5.88
2023-02-19T20:50:30.143Z,5.52
2023-02-19T20:53:03.632Z,5.20
2023-02-19T21:01:40.111Z,4.67
2023-02-19T21:03:20.332Z,4.40
2023-02-19T21:05:26.335Z,4.93
2023-02-19T21:09:41.525Z,3.90
2023-02-19T21:12:58.379Z,3.67
2023-02-19T21:18:22.636Z,3.30
2023-02-19T21:21:20.589Z,3.15
2023-02-19T21:24:17.024Z,3.04
2023-02-19T21:26:45.287Z,2.97
2023-02-19T21:32:25.432Z,2.76
2023-02-19T21:34:55.138Z,2.65
2023-02-19T21:37:24.419Z,2.58
2023-02-19T21:39:51.899Z,2.53
2023-02-19T21:42:31.743Z,2.48
2023-02-19T21:45:00.022Z,2.37
2023-02-19T21:47:28.507Z,2.33
2023-02-19T21:49:57.547Z,2.29
2023-02-19T21:52:26.735Z,2.24
2023-02-19T21:54:54.692Z,2.26
2023-02-19T21:57:30.993Z,2.27
2023-02-19T22:00:09.641Z,2.24
2023-02-19T22:03:03.528Z,2.23
2023-02-19T22:05:30.527Z,2.22
2023-02-19T22:08:28.877Z,2.21
2023-02-19T22:11:00.461Z,2.22
2023-02-19T22:13:32.128Z,2.23
2023-02-19T22:15:59.103Z,2.23
2023-02-19T22:18:33.071Z,2.25
2023-02-19T22:21:01.595Z,2.27
2023-02-19T22:23:30.106Z,2.28
2023-02-19T22:26:00.156Z,2.29
2023-02-19T22:28:27.212Z,2.33
2023-02-19T22:30:55.493Z,2.35
2023-02-19T22:33:29.813Z,2.37
2023-02-19T22:36:09.813Z,2.39
2023-02-19T22:38:42.412Z,2.40
2023-02-19T22:41:09.899Z,2.39
2023-02-19T22:43:36.994Z,2.40
2023-02-19T22:46:18.028Z,2.39
2023-02-19T22:48:47.895Z,2.35
2023-02-19T22:51:23.149Z,2.32
2023-02-19T22:54:13.401Z,2.31
2023-02-19T22:56:58.480Z,2.29
2023-02-19T22:59:59.516Z,2.27
2023-02-19T23:02:29.208Z,2.28
2023-02-19T23:04:56.037Z,2.29
2023-02-19T23:07:25.173Z,2.32
2023-02-19T23:09:54.834Z,2.34
2023-02-19T23:12:28.189Z,2.37
2023-02-19T23:15:16.381Z,2.41
2023-02-19T23:17:44.908Z,2.47
2023-02-19T23:20:15.520Z,2.51
2023-02-19T23:22:58.776Z,2.55
2023-02-19T23:25:29.641Z,2.60
2023-02-19T23:32:27.340Z,2.75
2023-02-19T23:34:58.491Z,2.81
2023-02-19T23:38:00.258Z,2.85
2023-02-19T23:40:30.955Z,2.92
2023-02-19T23:43:06.803Z,2.97
2023-02-19T23:45:40.050Z,3.03
2023-02-19T23:48:07.089Z,3.05
2023-02-19T23:50:33.965Z,3.07
2023-02-19T23:53:09.772Z,3.08
2023-02-19T23:55:36.748Z,3.09
2023-02-19T23:58:03.757Z,3.11
